Time;durP1;ratioP1;P1;durP2;ratioP2;P2;SDS_P1;SDS_P2;PMS_P1;PMS_P2;Temp;Humidity;BMP_temperature;BMP_pressure;BME280_temperature;BME280_humidity;BME280_pressure;Samples;Min_cycle;Max_cycle;Signal;HPM_P1;HPM_P2
2023/02/26 00:00:25;;;;;;;7.55;1.20;;;3.10;99.90;;;;;;4869712;29;20056;-88
2023/02/26 00:02:51;;;;;;;6.43;1.40;;;3.10;99.90;;;;;;4876673;29;20397;-86
2023/02/26 00:05:16;;;;;;;7.60;1.50;;;3.00;99.90;;;;;;4879939;29;20057;-85
2023/02/26 00:07:42;;;;;;;8.27;1.17;;;3.00;99.90;;;;;;4867850;29;20053;-86
2023/02/26 00:10:12;;;;;;;10.63;1.77;;;3.00;99.90;;;;;;4853084;29;20045;-86
2023/02/26 00:12:38;;;;;;;5.75;1.38;;;3.00;99.90;;;;;;4862999;29;20052;-86
2023/02/26 00:15:05;;;;;;;6.40;1.35;;;3.00;99.90;;;;;;4853383;29;20045;-87
2023/02/26 00:17:47;;;;;;;4.32;1.10;;;2.90;99.90;;;;;;4863935;29;20403;-87
2023/02/26 00:20:15;;;;;;;8.32;1.20;;;2.90;99.90;;;;;;4863662;24;20045;-86
2023/02/26 00:22:42;;;;;;;8.30;1.38;;;2.90;99.90;;;;;;4851734;29;20050;-87
2023/02/26 00:25:08;;;;;;;7.75;1.20;;;2.90;99.90;;;;;;4838946;29;20097;-86
2023/02/26 00:27:35;;;;;;;8.93;1.23;;;2.90;99.90;;;;;;4836500;29;20045;-86
2023/02/26 00:30:02;;;;;;;4.90;1.08;;;2.80;99.90;;;;;;4845072;29;20101;-87
2023/02/26 00:32:28;;;;;;;4.93;1.30;;;2.80;99.90;;;;;;4858799;29;20131;-87
2023/02/26 00:34:54;;;;;;;5.05;1.08;;;2.80;99.90;;;;;;4861669;29;20041;-88
2023/02/26 00:38:08;;;;;;;11.13;1.63;;;2.80;99.90;;;;;;4861130;29;20115;-87
2023/02/26 00:40:48;;;;;;;9.07;1.50;;;2.80;99.90;;;;;;4840866;29;20057;-87
2023/02/26 00:43:18;;;;;;;10.18;1.45;;;2.70;99.90;;;;;;4843772;29;20045;-88
2023/02/26 00:46:23;;;;;;;8.48;1.70;;;2.70;99.90;;;;;;4861945;29;20045;-87
2023/02/26 00:49:01;;;;;;;5.97;1.30;;;2.70;99.90;;;;;;4833701;29;20133;-88
2023/02/26 00:51:36;;;;;;;7.30;1.30;;;2.70;99.90;;;;;;4832410;29;20050;-87
2023/02/26 00:54:15;;;;;;;6.75;1.50;;;2.70;99.90;;;;;;4845398;29;20512;-88
2023/02/26 00:56:41;;;;;;;6.38;1.50;;;2.70;99.90;;;;;;4841136;29;20054;-89
2023/02/26 00:59:07;;;;;;;11.40;1.40;;;2.60;99.90;;;;;;4857071;29;20442;-88
2023/02/26 01:01:32;;;;;;;6.75;1.40;;;2.60;99.90;;;;;;4839586;29;20486;-88
2023/02/26 01:03:58;;;;;;;7.05;1.10;;;2.60;99.90;;;;;;4845310;29;20103;-88
2023/02/26 01:06:28;;;;;;;7.43;1.17;;;2.60;99.90;;;;;;4861844;29;20041;-87
2023/02/26 01:09:12;;;;;;;9.40;1.30;;;2.60;99.90;;;;;;4843477;29;20050;-88
2023/02/26 01:11:38;;;;;;;4.20;0.75;;;2.50;99.90;;;;;;4832544;29;20497;-87
2023/02/26 01:14:04;;;;;;;7.82;1.20;;;2.50;99.90;;;;;;4845261;29;20042;-87
2023/02/26 01:16:42;;;;;;;3.97;1.00;;;2.50;99.90;;;;;;4861436;29;20048;-88
2023/02/26 01:19:19;;;;;;;8.27;1.23;;;2.50;99.90;;;;;;4860405;29;20066;-87
2023/02/26 01:21:54;;;;;;;5.63;1.20;;;2.50;99.90;;;;;;4847761;29;20046;-88
2023/02/26 01:24:23;;;;;;;7.40;1.10;;;2.50;99.90;;;;;;4858033;29;20059;-87
2023/02/26 01:26:49;;;;;;;7.00;1.15;;;2.40;99.90;;;;;;4860330;29;20044;-87
2023/02/26 01:29:15;;;;;;;8.02;1.05;;;2.40;99.90;;;;;;4844710;29;20510;-87
2023/02/26 01:31:56;;;;;;;6.85;0.90;;;2.40;99.90;;;;;;4827149;29;20061;-86
2023/02/26 01:35:01;;;;;;;5.60;0.90;;;2.40;99.90;;;;;;4857226;29;20054;-87
2023/02/26 01:37:55;;;;;;;8.05;1.10;;;2.40;99.90;;;;;;4846450;29;20415;-87
2023/02/26 01:40:45;;;;;;;5.50;1.20;;;2.30;99.90;;;;;;4838731;29;20045;-87
2023/02/26 01:43:23;;;;;;;5.75;0.90;;;2.30;99.90;;;;;;4847049;29;20116;-87
2023/02/26 01:46:15;;;;;;;7.40;0.95;;;2.30;99.90;;;;;;4859009;29;20490;-86
2023/02/26 01:48:51;;;;;;;4.25;0.80;;;2.30;99.90;;;;;;4841907;24;20094;-87
2023/02/26 01:51:38;;;;;;;10.80;1.35;;;2.20;99.90;;;;;;4840515;29;20050;-87
2023/02/26 01:54:03;;;;;;;7.75;1.33;;;2.20;99.90;;;;;;4839204;29;20052;-87
2023/02/26 01:56:29;;;;;;;9.52;0.90;;;2.20;99.90;;;;;;4842394;29;20128;-87
2023/02/26 01:58:55;;;;;;;5.45;1.15;;;2.20;99.90;;;;;;4840238;29;20046;-87
2023/02/26 02:01:20;;;;;;;9.27;1.02;;;2.20;99.90;;;;;;4842202;29;20407;-87
2023/02/26 02:03:46;;;;;;;7.07;1.00;;;2.20;99.90;;;;;;4841648;29;20092;-86
2023/02/26 02:06:23;;;;;;;5.15;0.85;;;2.20;99.90;;;;;;4825643;29;20106;-86
2023/02/26 02:08:50;;;;;;;6.15;0.98;;;2.10;99.90;;;;;;4840495;29;20050;-87
2023/02/26 02:11:15;;;;;;;8.98;1.33;;;2.10;99.90;;;;;;4840827;29;20049;-87
2023/02/26 02:13:56;;;;;;;7.72;0.95;;;2.10;99.90;;;;;;4841042;29;20041;-87
2023/02/26 02:16:36;;;;;;;5.72;0.90;;;2.10;99.90;;;;;;4840873;29;20402;-88
2023/02/26 02:19:16;;;;;;;6.07;0.93;;;2.10;99.90;;;;;;4825695;29;20379;-87
2023/02/26 02:21:54;;;;;;;7.63;1.05;;;2.10;99.90;;;;;;4841051;29;20050;-87
2023/02/26 02:24:38;;;;;;;7.63;0.93;;;2.00;99.90;;;;;;4840310;29;20091;-86
2023/02/26 02:27:28;;;;;;;4.82;0.80;;;2.00;99.90;;;;;;4841410;29;20081;-87
2023/02/26 02:30:26;;;;;;;7.68;0.80;;;2.00;99.90;;;;;;4841261;29;20053;-87
2023/02/26 02:33:24;;;;;;;4.53;0.70;;;2.00;99.90;;;;;;4840131;29;20503;-87
2023/02/26 02:36:00;;;;;;;4.65;1.00;;;2.00;99.90;;;;;;4833423;29;20050;-87
2023/02/26 02:38:33;;;;;;;6.40;1.00;;;1.90;99.90;;;;;;4842004;29;20093;-86
2023/02/26 02:41:14;;;;;;;6.00;0.90;;;1.90;99.90;;;;;;4830581;29;20502;-87
2023/02/26 02:43:42;;;;;;;3.97;0.90;;;1.90;99.90;;;;;;4842041;29;20078;-86
2023/02/26 02:46:16;;;;;;;4.88;0.93;;;1.90;99.90;;;;;;4840618;29;20050;-87
2023/02/26 02:49:10;;;;;;;2.72;0.65;;;1.80;99.90;;;;;;4841255;29;20401;-87
2023/02/26 02:51:59;;;;;;;7.80;1.15;;;1.90;99.90;;;;;;4825484;29;20126;-86
2023/02/26 02:55:11;;;;;;;5.53;0.93;;;1.80;99.90;;;;;;4824687;29;20053;-87
2023/02/26 02:57:43;;;;;;;6.90;0.90;;;1.80;99.90;;;;;;4785902;30;20083;-86
2023/02/26 03:00:12;;;;;;;5.05;0.93;;;1.80;99.90;;;;;;4832460;29;20537;-87
2023/02/26 03:02:59;;;;;;;4.57;0.77;;;1.80;99.90;;;;;;4825590;29;20497;-87
2023/02/26 03:05:25;;;;;;;5.53;1.48;;;1.70;99.90;;;;;;4845122;29;20192;-87
2023/02/26 03:08:03;;;;;;;3.97;0.68;;;1.70;99.90;;;;;;4829017;29;20170;-87
2023/02/26 03:10:30;;;;;;;4.80;0.80;;;1.70;99.90;;;;;;4827796;29;20042;-86
2023/02/26 03:12:55;;;;;;;4.55;1.00;;;1.70;99.90;;;;;;4828803;29;20387;-87
2023/02/26 03:15:45;;;;;;;3.17;0.70;;;1.70;99.90;;;;;;4828151;29;20097;-87
2023/02/26 03:18:36;;;;;;;8.35;0.90;;;1.70;99.90;;;;;;4828514;29;20046;-87
2023/02/26 03:21:27;;;;;;;5.40;0.80;;;1.70;99.90;;;;;;4845029;29;20046;-86
2023/02/26 03:24:08;;;;;;;4.18;0.90;;;1.60;99.90;;;;;;4827801;29;20078;-87
2023/02/26 03:26:53;;;;;;;7.53;0.98;;;1.60;99.90;;;;;;4827909;29;20054;-87
2023/02/26 03:29:33;;;;;;;3.80;0.80;;;1.60;99.90;;;;;;4827394;29;20054;-86
2023/02/26 03:32:18;;;;;;;4.32;0.80;;;1.60;99.90;;;;;;4845322;29;20085;-88
2023/02/26 03:34:52;;;;;;;5.07;0.75;;;1.50;99.90;;;;;;4828711;29;20410;-86
2023/02/26 03:37:59;;;;;;;4.55;0.90;;;1.50;99.90;;;;;;4845112;29;20042;-87
2023/02/26 03:40:34;;;;;;;3.85;0.68;;;1.50;99.90;;;;;;4816260;29;20144;-86
2023/02/26 03:43:09;;;;;;;2.95;0.80;;;1.50;99.90;;;;;;4828399;29;20046;-87
2023/02/26 03:45:38;;;;;;;4.18;0.95;;;1.40;99.90;;;;;;4839274;29;20183;-87
2023/02/26 03:48:06;;;;;;;4.88;0.77;;;1.40;99.90;;;;;;4845112;29;20108;-87
2023/02/26 03:50:48;;;;;;;2.30;0.73;;;1.40;99.90;;;;;;4842795;29;20114;-87
2023/02/26 03:53:19;;;;;;;4.65;0.70;;;1.40;99.90;;;;;;4846227;29;20061;-87
2023/02/26 03:56:14;;;;;;;4.22;0.77;;;1.30;99.90;;;;;;4846742;29;20196;-88
2023/02/26 03:58:40;;;;;;;2.25;0.90;;;1.30;99.90;;;;;;4846160;29;20060;-87
2023/02/26 04:01:10;;;;;;;4.53;0.80;;;1.30;99.90;;;;;;4846603;29;20066;-87
2023/02/26 04:03:44;;;;;;;4.63;0.75;;;1.30;99.90;;;;;;4862865;29;20402;-87
2023/02/26 04:06:11;;;;;;;2.30;0.73;;;1.20;99.90;;;;;;4862160;29;20050;-86
2023/02/26 04:08:37;;;;;;;3.42;0.80;;;1.20;99.90;;;;;;4845809;29;20380;-86
2023/02/26 04:11:11;;;;;;;2.33;0.63;;;1.20;99.90;;;;;;4846423;29;20052;-87
2023/02/26 04:13:36;;;;;;;3.38;0.70;;;1.20;99.90;;;;;;4845497;29;20128;-88
2023/02/26 04:16:03;;;;;;;4.82;0.82;;;1.20;99.90;;;;;;4861681;29;20178;-87
2023/02/26 04:18:29;;;;;;;3.83;0.73;;;1.10;99.90;;;;;;4861576;29;20041;-87
2023/02/26 04:20:54;;;;;;;5.30;0.80;;;1.10;99.90;;;;;;4846015;29;20057;-87
2023/02/26 04:23:20;;;;;;;7.03;0.80;;;1.10;99.90;;;;;;4844238;29;20399;-87
2023/02/26 04:25:46;;;;;;;4.38;0.93;;;1.10;99.90;;;;;;4861640;29;20561;-87
2023/02/26 04:28:12;;;;;;;4.95;0.80;;;1.00;99.90;;;;;;4845359;29;20482;-87
2023/02/26 04:30:37;;;;;;;3.53;0.70;;;1.00;99.90;;;;;;4862288;29;20037;-85
2023/02/26 04:33:03;;;;;;;3.47;0.93;;;1.00;99.90;;;;;;4861537;29;20049;-87
2023/02/26 04:35:29;;;;;;;4.00;0.70;;;1.00;99.90;;;;;;4845137;29;20068;-87
2023/02/26 04:37:54;;;;;;;6.30;0.80;;;1.00;99.90;;;;;;4862815;29;20128;-87
2023/02/26 04:40:22;;;;;;;3.78;0.65;;;1.00;99.90;;;;;;4844404;29;20129;-87
2023/02/26 04:42:48;;;;;;;5.05;0.85;;;1.00;99.90;;;;;;4846233;29;20443;-87
2023/02/26 04:45:14;;;;;;;3.47;0.80;;;0.90;99.90;;;;;;4845459;29;20037;-87
2023/02/26 04:47:39;;;;;;;4.63;0.80;;;0.90;99.90;;;;;;4845144;29;20047;-87
2023/02/26 04:50:06;;;;;;;2.95;0.80;;;0.90;99.90;;;;;;4844307;29;20061;-88
2023/02/26 04:52:31;;;;;;;3.60;0.93;;;0.90;99.90;;;;;;4845741;29;20061;-87
2023/02/26 04:54:57;;;;;;;3.95;0.77;;;0.80;99.90;;;;;;4844970;29;20044;-87
2023/02/26 04:57:23;;;;;;;4.50;0.65;;;0.80;99.90;;;;;;4845551;29;20041;-87
2023/02/26 04:59:48;;;;;;;3.42;0.80;;;0.80;99.90;;;;;;4861546;29;20057;-86
2023/02/26 05:02:14;;;;;;;2.60;0.77;;;0.80;99.90;;;;;;4861034;29;20077;-86
2023/02/26 05:04:40;;;;;;;4.10;0.80;;;0.80;99.90;;;;;;4861525;29;20045;-87
2023/02/26 05:07:06;;;;;;;3.33;0.77;;;0.70;99.90;;;;;;4862256;29;20052;-87
2023/02/26 05:09:31;;;;;;;6.00;1.00;;;0.70;99.90;;;;;;4843802;29;20057;-87
2023/02/26 05:11:57;;;;;;;7.50;0.82;;;0.70;99.90;;;;;;4845321;29;20092;-86
2023/02/26 05:14:22;;;;;;;3.22;0.75;;;0.70;99.90;;;;;;4841442;29;20049;-86
2023/02/26 05:16:48;;;;;;;5.63;0.98;;;0.70;99.90;;;;;;4841580;29;20049;-86
2023/02/26 05:19:14;;;;;;;5.28;1.00;;;0.70;99.90;;;;;;4844792;29;20053;-87
2023/02/26 05:21:40;;;;;;;4.07;0.88;;;0.70;99.90;;;;;;4861766;29;20085;-87
2023/02/26 05:24:05;;;;;;;2.63;0.70;;;0.60;99.90;;;;;;4861073;29;20083;-87
2023/02/26 05:26:31;;;;;;;3.05;0.80;;;0.60;99.90;;;;;;4843951;29;20128;-87
2023/02/26 05:28:57;;;;;;;2.22;0.63;;;0.60;99.90;;;;;;4844265;29;20435;-87
2023/02/26 05:31:22;;;;;;;3.58;0.68;;;0.60;99.90;;;;;;4844858;29;20053;-87
2023/02/26 05:33:48;;;;;;;5.68;0.80;;;0.50;99.90;;;;;;4844071;29;20053;-87
2023/02/26 05:36:14;;;;;;;4.80;0.88;;;0.60;99.90;;;;;;4860555;29;20082;-87
2023/02/26 05:38:39;;;;;;;4.75;0.80;;;0.50;99.90;;;;;;4844642;29;20120;-87
2023/02/26 05:41:05;;;;;;;3.38;0.80;;;0.50;99.90;;;;;;4861717;29;20498;-87
2023/02/26 05:43:32;;;;;;;1.75;0.63;;;0.50;99.90;;;;;;4843668;29;20495;-87
2023/02/26 05:45:59;;;;;;;3.20;0.82;;;0.50;99.90;;;;;;4842539;29;20133;-86
2023/02/26 05:48:24;;;;;;;4.22;0.70;;;0.50;99.90;;;;;;4843418;29;20490;-87
2023/02/26 05:50:51;;;;;;;4.10;0.88;;;0.40;99.90;;;;;;4844030;29;20455;-86
2023/02/26 05:53:17;;;;;;;3.10;0.60;;;0.40;99.90;;;;;;4843935;29;20062;-86
2023/02/26 05:55:42;;;;;;;3.15;0.68;;;0.40;99.90;;;;;;4844232;29;20045;-87
2023/02/26 05:58:08;;;;;;;3.38;0.77;;;0.40;99.90;;;;;;4859740;29;20041;-87
2023/02/26 06:00:34;;;;;;;7.50;0.90;;;0.40;99.90;;;;;;4843397;29;20421;-88
2023/02/26 06:02:59;;;;;;;3.65;0.80;;;0.40;99.90;;;;;;4845171;29;20049;-87
2023/02/26 06:05:25;;;;;;;3.42;0.70;;;0.40;99.90;;;;;;4843599;29;20045;-87
2023/02/26 06:07:51;;;;;;;2.88;0.80;;;0.40;99.90;;;;;;4843897;29;20049;-87
2023/02/26 06:10:16;;;;;;;3.25;0.82;;;0.40;99.90;;;;;;4844071;29;20107;-88
2023/02/26 06:12:42;;;;;;;3.42;0.70;;;0.30;99.90;;;;;;4843135;29;20041;-87
2023/02/26 06:15:09;;;;;;;3.97;0.98;;;0.30;99.90;;;;;;4843814;29;20498;-87
2023/02/26 06:17:34;;;;;;;5.32;1.00;;;0.30;99.90;;;;;;4844099;29;20073;-87
2023/02/26 06:20:01;;;;;;;4.68;0.80;;;0.30;99.90;;;;;;4843343;29;20065;-87
2023/02/26 06:22:27;;;;;;;6.20;0.98;;;0.30;99.90;;;;;;4844015;29;20046;-87
2023/02/26 06:24:54;;;;;;;4.00;0.80;;;0.30;99.90;;;;;;4844972;29;20037;-87
2023/02/26 06:27:21;;;;;;;6.80;0.77;;;0.30;99.90;;;;;;4859668;29;20050;-89
2023/02/26 06:29:46;;;;;;;4.72;1.00;;;0.30;99.90;;;;;;4844799;29;20053;-90
2023/02/26 06:32:12;;;;;;;5.32;0.98;;;0.30;99.90;;;;;;4843307;29;20039;-87
2023/02/26 06:34:37;;;;;;;4.05;0.80;;;0.30;99.90;;;;;;4860689;29;20152;-87
2023/02/26 06:37:03;;;;;;;3.47;0.95;;;0.30;99.90;;;;;;4844211;29;20048;-88
2023/02/26 06:39:29;;;;;;;4.82;0.93;;;0.20;99.90;;;;;;4846918;29;20490;-87
2023/02/26 06:41:54;;;;;;;3.40;0.90;;;0.20;99.90;;;;;;4848317;29;20092;-87
2023/02/26 06:44:20;;;;;;;4.20;0.80;;;0.20;99.90;;;;;;4847651;29;20064;-87
2023/02/26 06:46:46;;;;;;;2.78;0.80;;;0.20;99.90;;;;;;4863829;29;20490;-87
2023/02/26 06:49:11;;;;;;;4.05;0.93;;;0.20;99.90;;;;;;4864880;29;20484;-89
2023/02/26 06:51:37;;;;;;;4.13;0.80;;;0.20;99.90;;;;;;4864328;29;20049;-89
2023/02/26 06:54:04;;;;;;;3.33;0.80;;;0.20;99.90;;;;;;4847803;29;20049;-87
2023/02/26 06:56:29;;;;;;;3.13;0.85;;;0.20;99.90;;;;;;4864874;29;20041;-87
2023/02/26 06:58:55;;;;;;;5.32;1.02;;;0.20;99.90;;;;;;4863912;29;20484;-87
2023/02/26 07:01:20;;;;;;;4.43;0.70;;;0.20;99.90;;;;;;4863762;29;20060;-87
2023/02/26 07:03:46;;;;;;;4.80;0.98;;;0.20;99.90;;;;;;4847390;29;20124;-88
2023/02/26 07:06:12;;;;;;;4.07;0.90;;;0.20;99.90;;;;;;4863756;29;20050;-88
2023/02/26 07:08:38;;;;;;;3.85;0.80;;;0.10;99.90;;;;;;4864419;29;20045;-87
2023/02/26 07:11:04;;;;;;;5.10;1.08;;;0.10;99.90;;;;;;4847661;29;20049;-87
2023/02/26 07:13:30;;;;;;;4.28;0.98;;;0.10;99.90;;;;;;4864351;29;20045;-86
2023/02/26 07:15:56;;;;;;;5.68;1.00;;;0.10;99.90;;;;;;4843320;29;20056;-87
2023/02/26 07:18:21;;;;;;;4.57;1.15;;;0.10;99.90;;;;;;4856821;29;20399;-88
2023/02/26 07:20:50;;;;;;;7.80;1.20;;;0.10;99.90;;;;;;4847123;29;20042;-89
2023/02/26 07:23:16;;;;;;;4.63;0.95;;;0.10;99.90;;;;;;4834060;29;20081;-89
2023/02/26 07:25:41;;;;;;;5.78;0.90;;;0.10;99.90;;;;;;4836764;29;20105;-90
2023/02/26 07:28:07;;;;;;;3.95;0.80;;;0.20;99.90;;;;;;4847911;29;20101;-92
2023/02/26 07:30:33;;;;;;;4.63;0.80;;;0.20;99.90;;;;;;4863614;29;20052;-91
2023/02/26 07:32:59;;;;;;;4.00;0.80;;;0.20;99.90;;;;;;4848817;29;20049;-92
2023/02/26 07:35:25;;;;;;;3.80;0.77;;;0.20;99.90;;;;;;4846749;29;20516;-92
2023/02/26 07:37:51;;;;;;;4.00;0.80;;;0.20;99.90;;;;;;4864847;29;20042;-91
2023/02/26 07:40:17;;;;;;;3.65;0.75;;;0.20;99.90;;;;;;4847223;29;20045;-92
2023/02/26 07:42:43;;;;;;;4.22;0.82;;;0.30;99.90;;;;;;4846918;29;20046;-90
2023/02/26 07:45:09;;;;;;;7.30;1.00;;;0.30;99.90;;;;;;4847705;29;20040;-92
2023/02/26 07:47:35;;;;;;;4.93;1.00;;;0.30;99.90;;;;;;4864255;29;20494;-95
2023/02/26 07:50:01;;;;;;;5.03;0.90;;;0.30;99.90;;;;;;4863092;29;20060;-90
2023/02/26 07:52:27;;;;;;;6.63;0.80;;;0.30;99.90;;;;;;4842225;29;20053;-89
2023/02/26 07:54:53;;;;;;;8.32;1.27;;;0.30;99.90;;;;;;4841731;29;20069;-88
2023/02/26 07:57:19;;;;;;;3.22;0.85;;;0.30;99.90;;;;;;4852973;29;20483;-93
2023/02/26 07:59:44;;;;;;;3.00;0.90;;;0.40;99.90;;;;;;4831259;29;20514;-92
2023/02/26 08:02:11;;;;;;;5.15;0.90;;;0.40;99.90;;;;;;4840055;29;20501;-91
2023/02/26 08:04:37;;;;;;;7.07;0.75;;;0.40;99.90;;;;;;4860504;29;20044;-90
2023/02/26 08:07:03;;;;;;;4.97;0.80;;;0.50;99.90;;;;;;4827342;29;20045;-90
2023/02/26 08:09:29;;;;;;;3.35;0.90;;;0.50;99.90;;;;;;4856248;29;20057;-89
2023/02/26 08:11:55;;;;;;;4.93;1.08;;;0.60;99.90;;;;;;4846579;29;20045;-91
2023/02/26 08:14:21;;;;;;;4.93;0.75;;;0.60;99.90;;;;;;4863362;29;20053;-92
2023/02/26 08:16:47;;;;;;;5.50;1.00;;;0.60;99.90;;;;;;4863515;29;20053;-91
2023/02/26 08:19:12;;;;;;;6.25;1.10;;;0.70;99.90;;;;;;4864955;29;20114;-94
2023/02/26 08:21:38;;;;;;;4.57;0.90;;;0.80;99.90;;;;;;4851115;29;20046;-92
2023/02/26 08:24:04;;;;;;;7.95;1.20;;;0.80;99.90;;;;;;4864904;29;20053;-94
2023/02/26 08:26:29;;;;;;;5.78;1.00;;;0.90;99.90;;;;;;4846098;29;20045;-89
2023/02/26 08:28:55;;;;;;;5.35;0.95;;;0.90;99.90;;;;;;4863591;29;20095;-91
2023/02/26 08:31:21;;;;;;;7.53;1.00;;;1.00;99.90;;;;;;4847536;29;20046;-89
2023/02/26 08:33:47;;;;;;;4.88;0.95;;;1.10;99.90;;;;;;4847620;29;20053;-90
2023/02/26 08:36:13;;;;;;;5.47;0.90;;;1.20;99.90;;;;;;4847502;29;20040;-91
2023/02/26 08:38:39;;;;;;;3.70;0.98;;;1.20;99.90;;;;;;4847356;29;20041;-88
2023/02/26 08:41:05;;;;;;;5.65;0.90;;;1.20;99.90;;;;;;4847276;29;20170;-91
2023/02/26 08:43:30;;;;;;;8.95;1.25;;;1.40;99.90;;;;;;4863418;29;20057;-91
2023/02/26 08:45:57;;;;;;;5.78;0.95;;;1.40;99.90;;;;;;4847361;29;20485;-90
2023/02/26 08:48:23;;;;;;;6.95;2.38;;;1.50;99.90;;;;;;4847214;29;20053;-91
2023/02/26 08:50:50;;;;;;;14.93;6.55;;;1.50;99.90;;;;;;4847022;29;20061;-90
2023/02/26 08:53:16;;;;;;;7.82;2.53;;;1.60;99.90;;;;;;4847394;29;20059;-92
2023/02/26 08:55:48;;;;;;;15.73;5.95;;;1.60;99.90;;;;;;4846889;29;20052;-91
2023/02/26 08:58:13;;;;;;;12.80;4.20;;;1.70;99.90;;;;;;4863466;29;20045;-90
2023/02/26 09:00:39;;;;;;;11.43;3.15;;;1.80;99.90;;;;;;4845191;29;20061;-89
2023/02/26 09:03:04;;;;;;;12.45;3.75;;;1.80;99.90;;;;;;4843597;29;20128;-89
2023/02/26 09:05:30;;;;;;;9.40;3.72;;;1.90;99.90;;;;;;4845362;29;20392;-89
2023/02/26 09:07:56;;;;;;;15.57;4.35;;;2.00;99.90;;;;;;4845376;29;20517;-89
2023/02/26 09:10:21;;;;;;;15.50;7.70;;;2.10;99.90;;;;;;4837366;29;20042;-89
2023/02/26 09:12:47;;;;;;;8.45;3.38;;;2.10;99.90;;;;;;4847108;29;20106;-91
2023/02/26 09:15:15;;;;;;;8.45;3.08;;;2.20;99.90;;;;;;4846951;29;20056;-90
2023/02/26 09:17:41;;;;;;;7.85;2.10;;;2.20;99.90;;;;;;4863260;29;20053;-95
2023/02/26 09:20:08;;;;;;;11.18;3.78;;;2.40;99.90;;;;;;4846724;29;20122;-90
2023/02/26 09:22:34;;;;;;;8.30;2.88;;;2.40;99.90;;;;;;4861848;29;20110;-95
2023/02/26 09:25:00;;;;;;;8.10;2.65;;;2.50;99.90;;;;;;4846537;29;20525;-93
2023/02/26 09:27:26;;;;;;;9.45;2.38;;;2.60;99.90;;;;;;4832715;29;20087;-91
2023/02/26 09:29:51;;;;;;;7.55;2.25;;;2.70;99.90;;;;;;4851641;29;20486;-90
2023/02/26 09:32:17;;;;;;;5.53;1.92;;;2.80;99.90;;;;;;4846234;29;20056;-91
2023/02/26 09:34:43;;;;;;;8.27;2.45;;;2.90;99.90;;;;;;4862605;29;20049;-90
2023/02/26 09:37:09;;;;;;;5.28;1.55;;;3.00;99.90;;;;;;4844338;29;20044;-95
2023/02/26 09:39:37;;;;;;;6.15;1.80;;;3.10;99.90;;;;;;4851265;29;20050;-95
2023/02/26 09:42:39;;;;;;;5.35;1.75;;;3.20;99.90;;;;;;4868870;29;20049;-96
2023/02/26 09:45:13;;;;;;;4.32;1.50;;;3.20;99.90;;;;;;4846393;29;20136;-94
2023/02/26 09:47:45;;;;;;;7.05;1.65;;;3.30;99.90;;;;;;4843838;29;20042;-96
2023/02/26 09:50:45;;;;;;;6.90;1.88;;;3.40;99.90;;;;;;4829002;29;20140;-94
2023/02/26 09:53:27;;;;;;;5.68;1.60;;;3.50;99.90;;;;;;4842978;29;20089;-94
2023/02/26 09:55:56;;;;;;;4.72;1.52;;;3.60;99.90;;;;;;4844006;29;20181;-94
2023/02/26 09:58:37;;;;;;;3.55;1.20;;;3.70;99.90;;;;;;4842320;29;20046;-93
2023/02/26 10:01:05;;;;;;;5.93;1.45;;;3.80;99.90;;;;;;4828036;29;20510;-94
2023/02/26 10:03:48;;;;;;;6.57;1.13;;;3.90;99.90;;;;;;4842396;29;20120;-92
2023/02/26 10:06:31;;;;;;;5.28;1.10;;;3.90;99.90;;;;;;4844237;29;20057;-93
2023/02/26 10:09:27;;;;;;;3.83;1.15;;;4.00;99.90;;;;;;4844202;29;20053;-93
2023/02/26 10:11:59;;;;;;;4.68;1.30;;;4.10;99.90;;;;;;4844123;29;20075;-93
2023/02/26 10:14:53;;;;;;;8.23;1.42;;;4.20;99.90;;;;;;4826955;29;20495;-94
2023/02/26 10:17:38;;;;;;;5.25;1.20;;;4.20;99.90;;;;;;4827116;29;20085;-92
2023/02/26 10:20:18;;;;;;;4.78;0.98;;;4.40;99.90;;;;;;4828275;29;20046;-93
2023/02/26 10:23:03;;;;;;;5.53;1.30;;;4.40;99.90;;;;;;4825891;29;20054;-91
2023/02/26 10:25:54;;;;;;;5.10;0.98;;;4.50;99.90;;;;;;4843465;29;20518;-93
2023/02/26 10:28:29;;;;;;;5.07;1.17;;;4.50;99.90;;;;;;4827422;29;20491;-94
2023/02/26 10:31:02;;;;;;;11.57;3.92;;;4.60;99.90;;;;;;4844060;29;20052;-93
2023/02/26 10:33:49;;;;;;;5.07;1.27;;;4.60;99.90;;;;;;4826687;29;20045;-94
2023/02/26 10:36:27;;;;;;;3.85;1.20;;;4.70;99.90;;;;;;4842511;29;20109;-92
2023/02/26 10:39:04;;;;;;;5.30;1.75;;;4.80;99.90;;;;;;4827060;29;20073;-93
2023/02/26 10:41:33;;;;;;;7.95;1.70;;;4.80;99.90;;;;;;4827626;29;20045;-94
2023/02/26 10:44:32;;;;;;;4.10;1.55;;;4.80;99.90;;;;;;4827741;29;20056;-93
2023/02/26 10:47:28;;;;;;;4.10;0.95;;;4.90;99.90;;;;;;4820258;29;20061;-94
2023/02/26 10:50:01;;;;;;;4.57;0.90;;;5.00;99.90;;;;;;4842253;29;20058;-95
2023/02/26 10:52:30;;;;;;;2.45;0.80;;;5.00;99.90;;;;;;4826636;29;20042;-93
2023/02/26 10:55:23;;;;;;;5.53;0.95;;;5.10;99.90;;;;;;4843473;29;20399;-94
2023/02/26 10:58:07;;;;;;;3.97;0.90;;;5.10;99.90;;;;;;4827337;29;20062;-93
2023/02/26 11:00:36;;;;;;;6.13;1.05;;;5.20;99.90;;;;;;4839822;29;20057;-93
2023/02/26 11:03:05;;;;;;;5.72;0.95;;;5.20;99.90;;;;;;4849577;29;20094;-95
2023/02/26 11:05:33;;;;;;;3.95;0.90;;;5.30;99.90;;;;;;4843147;29;20082;-95
2023/02/26 11:08:14;;;;;;;4.53;1.00;;;5.30;99.90;;;;;;4831510;29;20058;-95
2023/02/26 11:10:43;;;;;;;3.13;0.60;;;5.40;99.90;;;;;;4863094;29;20102;-96
2023/02/26 11:13:16;;;;;;;5.03;0.80;;;5.40;99.90;;;;;;4854837;29;20049;-95
2023/02/26 11:15:46;;;;;;;3.67;0.73;;;5.50;99.90;;;;;;4860593;29;20037;-96
2023/02/26 11:18:17;;;;;;;3.63;0.63;;;5.50;99.90;;;;;;4858704;23;20024;-96
2023/02/26 11:20:45;;;;;;;3.65;0.60;;;5.60;99.90;;;;;;4846557;29;20426;-93
2023/02/26 11:23:17;;;;;;;3.85;0.70;;;5.60;99.90;;;;;;4865110;29;20049;-93
2023/02/26 11:25:43;;;;;;;3.75;0.70;;;5.60;99.90;;;;;;4864282;29;20108;-94
2023/02/26 11:28:32;;;;;;;4.47;0.90;;;5.60;99.90;;;;;;4848251;29;20060;-94
2023/02/26 11:31:17;;;;;;;6.63;1.10;;;5.70;99.90;;;;;;4848773;29;20104;-93
2023/02/26 11:33:54;;;;;;;5.65;0.95;;;5.70;99.90;;;;;;4848244;29;20105;-93
2023/02/26 11:36:23;;;;;;;3.20;0.60;;;5.80;99.90;;;;;;4865756;29;20121;-92
2023/02/26 11:38:59;;;;;;;3.78;0.70;;;5.80;99.90;;;;;;4836247;29;20042;-94
2023/02/26 11:41:27;;;;;;;2.97;0.60;;;5.90;99.90;;;;;;4847937;29;20150;-92
2023/02/26 11:44:09;;;;;;;4.50;0.70;;;6.00;99.90;;;;;;4851693;29;20498;-91
2023/02/26 11:47:03;;;;;;;6.00;0.70;;;6.00;99.90;;;;;;4863870;29;20049;-93
2023/02/26 11:49:34;;;;;;;3.80;0.63;;;6.00;99.90;;;;;;4863807;29;20502;-94
2023/02/26 11:52:47;;;;;;;5.97;0.70;;;6.00;99.90;;;;;;4844133;29;20053;-91
2023/02/26 11:55:28;;;;;;;5.20;0.75;;;6.10;99.90;;;;;;4803349;29;20148;-93
2023/02/26 11:57:55;;;;;;;3.83;0.65;;;6.10;99.90;;;;;;4838564;29;20049;-93
2023/02/26 12:00:42;;;;;;;5.35;0.60;;;6.20;99.90;;;;;;4846877;29;20501;-94
2023/02/26 12:03:20;;;;;;;3.50;0.60;;;6.30;99.90;;;;;;4863893;29;20077;-92
2023/02/26 12:05:47;;;;;;;6.47;0.80;;;6.30;99.90;;;;;;4846495;29;20052;-93
2023/02/26 12:08:26;;;;;;;3.60;0.90;;;6.40;99.90;;;;;;4845043;29;20085;-95
2023/02/26 12:11:02;;;;;;;3.80;0.85;;;6.40;99.90;;;;;;4841508;29;20405;-91
2023/02/26 12:13:46;;;;;;;4.57;0.70;;;6.40;99.90;;;;;;4844868;29;20058;-93
2023/02/26 12:16:37;;;;;;;4.53;0.70;;;6.50;99.90;;;;;;4842929;29;20077;-93
2023/02/26 12:19:34;;;;;;;4.00;0.57;;;6.60;99.90;;;;;;4852013;29;20057;-92
2023/02/26 12:22:02;;;;;;;6.65;0.60;;;6.70;99.90;;;;;;4840204;29;20053;-92
2023/02/26 12:24:49;;;;;;;7.72;1.70;;;6.70;99.90;;;;;;4842518;29;20042;-91
2023/02/26 12:27:40;;;;;;;8.25;2.13;;;6.80;99.90;;;;;;4844262;29;20052;-91
2023/02/26 12:30:41;;;;;;;4.18;1.00;;;6.80;99.90;;;;;;4844834;29;20045;-92
2023/02/26 12:33:31;;;;;;;5.75;1.50;;;6.90;99.30;;;;;;4841631;29;20049;-93
2023/02/26 12:36:00;;;;;;;4.68;1.10;;;6.90;98.90;;;;;;4845109;29;20381;-91
2023/02/26 12:38:56;;;;;;;5.25;1.20;;;6.90;99.30;;;;;;4843279;29;20045;-91
2023/02/26 12:41:42;;;;;;;3.38;0.85;;;7.00;99.00;;;;;;4842461;29;20042;-91
2023/02/26 12:44:44;;;;;;;4.53;0.98;;;7.00;99.10;;;;;;4845145;29;20137;-92
2023/02/26 12:47:42;;;;;;;3.22;0.90;;;7.00;99.10;;;;;;4842111;29;20061;-92
2023/02/26 12:50:22;;;;;;;3.60;0.88;;;7.00;99.40;;;;;;4844178;29;20510;-91
2023/02/26 12:53:25;;;;;;;4.10;1.05;;;7.00;99.00;;;;;;4842380;29;20081;-91
2023/02/26 12:56:20;;;;;;;5.60;1.13;;;7.00;98.40;;;;;;4844047;29;20088;-91
2023/02/26 12:58:52;;;;;;;6.03;1.10;;;7.00;98.60;;;;;;4833968;29;20065;-91
2023/02/26 13:01:21;;;;;;;6.43;1.02;;;7.10;98.50;;;;;;4842119;29;20095;-90
2023/02/26 13:04:10;;;;;;;6.30;1.08;;;7.10;98.40;;;;;;4842322;29;20417;-89
2023/02/26 13:07:00;;;;;;;6.10;0.90;;;7.20;98.10;;;;;;4841449;29;20038;-90
2023/02/26 13:09:36;;;;;;;5.28;1.00;;;7.20;97.40;;;;;;4844125;29;20050;-89
2023/02/26 13:12:16;;;;;;;3.47;0.88;;;7.20;96.80;;;;;;4842276;29;20507;-92
2023/02/26 13:14:54;;;;;;;4.85;1.08;;;7.20;97.10;;;;;;4843013;29;20057;-91
2023/02/26 13:17:25;;;;;;;6.32;1.67;;;7.20;97.40;;;;;;4841989;29;20054;-90
2023/02/26 13:20:04;;;;;;;6.88;2.20;;;7.20;97.20;;;;;;4841665;29;20521;-91
2023/02/26 13:22:44;;;;;;;12.02;3.00;;;7.30;97.40;;;;;;4843434;29;20062;-95
2023/02/26 13:25:50;;;;;;;5.53;1.88;;;7.20;97.40;;;;;;4843911;29;20158;-91
2023/02/26 13:28:47;;;;;;;6.47;1.80;;;7.30;97.60;;;;;;4844541;29;20053;-95